Time;durP1;ratioP1;P1;durP2;ratioP2;P2;SDS_P1;SDS_P2;PMS_P1;PMS_P2;Temp;Humidity;BMP_temperature;BMP_pressure;BME280_temperature;BME280_humidity;BME280_pressure;Samples;Min_cycle;Max_cycle;Signal;HPM_P1;HPM_P2
2022/06/26 00:00:29;;;;;;;9.82;7.72;;;;;;;21.44;65.06;100525.81;5124248;28;20068;-69
2022/06/26 00:02:54;;;;;;;9.15;8.13;;;;;;;21.44;64.89;100527.63;5124226;28;20008;-69
2022/06/26 00:05:19;;;;;;;9.52;8.45;;;;;;;21.38;65.00;100515.59;5123870;28;20027;-71
2022/06/26 00:07:45;;;;;;;10.20;7.93;;;;;;;21.44;64.69;100525.81;5123889;28;20043;-70
2022/06/26 00:10:11;;;;;;;8.65;7.78;;;;;;;21.42;64.83;100523.25;5124228;28;20027;-70
2022/06/26 00:12:36;;;;;;;8.98;7.80;;;;;;;21.40;64.66;100526.94;5123948;28;20020;-70
2022/06/26 00:15:02;;;;;;;9.70;8.18;;;;;;;21.33;64.44;100515.81;5124169;28;20038;-70
2022/06/26 00:17:27;;;;;;;9.00;8.02;;;;;;;21.39;64.26;100531.34;5123835;28;20473;-70
2022/06/26 00:19:53;;;;;;;8.68;7.65;;;;;;;21.41;64.23;100531.28;5123801;28;20023;-70
2022/06/26 00:22:19;;;;;;;10.48;7.25;;;;;;;21.41;63.88;100529.50;5128391;28;20023;-70
2022/06/26 00:24:45;;;;;;;8.73;7.88;;;;;;;21.42;63.69;100539.09;5128362;28;20027;-70
2022/06/26 00:27:11;;;;;;;9.18;7.60;;;;;;;21.47;63.32;100548.59;5128016;28;20431;-70
2022/06/26 00:29:36;;;;;;;8.05;7.35;;;;;;;21.46;63.46;100542.44;5128198;28;20156;-70
2022/06/26 00:32:04;;;;;;;10.77;7.78;;;;;;;21.48;63.53;100543.22;5128063;28;20478;-70
2022/06/26 00:34:29;;;;;;;9.65;8.15;;;;;;;21.45;63.47;100546.03;5127810;28;20023;-70
2022/06/26 00:36:55;;;;;;;8.60;7.70;;;;;;;21.45;63.25;100546.03;5127890;28;20023;-70
2022/06/26 00:39:20;;;;;;;8.73;7.18;;;;;;;21.46;63.18;100554.78;5127969;28;20065;-70
2022/06/26 00:41:46;;;;;;;8.60;7.07;;;;;;;21.48;63.06;100556.44;5127812;28;20450;-70
2022/06/26 00:44:13;;;;;;;9.02;7.25;;;;;;;21.48;62.57;100548.50;5127886;28;20019;-70
2022/06/26 00:46:38;;;;;;;10.23;8.13;;;;;;;21.49;62.70;100563.41;5109240;28;20031;-70
2022/06/26 00:49:03;;;;;;;9.88;7.85;;;;;;;21.46;62.85;100557.44;5127462;28;20024;-70
2022/06/26 00:51:29;;;;;;;9.65;7.75;;;;;;;21.45;62.96;100563.66;5127437;28;20046;-70
2022/06/26 00:53:54;;;;;;;9.32;7.55;;;;;;;21.40;62.80;100555.97;5127612;28;20026;-69
2022/06/26 00:56:20;;;;;;;9.27;7.78;;;;;;;21.38;62.75;100556.06;5127683;28;20035;-70
2022/06/26 00:58:45;;;;;;;8.32;6.72;;;;;;;21.30;62.39;100545.91;5127495;28;20031;-70
2022/06/26 01:01:11;;;;;;;8.80;8.00;;;;;;;21.38;62.17;100557.84;5127369;28;20023;-70
2022/06/26 01:03:36;;;;;;;8.35;7.50;;;;;;;21.38;62.26;100560.47;5127131;28;20414;-70
2022/06/26 01:06:05;;;;;;;8.27;7.15;;;;;;;21.36;61.93;100557.09;5127351;28;20039;-70
2022/06/26 01:08:30;;;;;;;9.00;7.72;;;;;;;21.37;62.01;100569.34;5127310;28;20066;-70
2022/06/26 01:10:56;;;;;;;9.80;7.47;;;;;;;21.34;62.40;100558.94;5127633;28;20023;-71
2022/06/26 01:13:22;;;;;;;9.32;8.05;;;;;;;21.29;62.40;100562.66;5127073;28;20243;-71
2022/06/26 01:15:47;;;;;;;10.18;8.50;;;;;;;21.29;62.31;100567.94;5108844;28;20095;-70
2022/06/26 01:18:13;;;;;;;9.25;7.88;;;;;;;21.27;62.70;100567.19;5127209;28;20016;-70
2022/06/26 01:20:39;;;;;;;9.02;7.55;;;;;;;21.24;62.78;100553.28;5126980;28;20034;-69
2022/06/26 01:23:06;;;;;;;9.13;8.18;;;;;;;21.20;62.69;100560.47;5127195;28;20388;-70
2022/06/26 01:25:46;;;;;;;9.63;8.65;;;;;;;21.16;62.84;100553.66;5127266;28;20023;-70
2022/06/26 01:28:12;;;;;;;9.27;8.05;;;;;;;21.14;62.91;100566.06;5127054;28;20020;-70
2022/06/26 01:30:38;;;;;;;10.73;8.10;;;;;;;21.09;63.40;100555.75;5127007;28;20094;-70
2022/06/26 01:33:05;;;;;;;10.80;7.78;;;;;;;21.07;63.38;100556.78;5125687;28;20019;-70
2022/06/26 01:35:30;;;;;;;8.20;7.40;;;;;;;21.05;63.11;100554.22;5126609;28;20023;-69
2022/06/26 01:38:06;;;;;;;11.60;7.88;;;;;;;21.03;63.26;100554.28;5126862;28;20030;-70
2022/06/26 01:40:31;;;;;;;9.55;8.07;;;;;;;21.07;62.93;100551.50;5126872;28;20416;-70
2022/06/26 01:42:57;;;;;;;7.90;7.10;;;;;;;21.03;62.91;100543.72;5126764;28;20024;-70
2022/06/26 01:45:22;;;;;;;9.07;7.47;;;;;;;21.03;62.98;100546.38;5126741;28;20035;-70
2022/06/26 01:47:48;;;;;;;8.57;7.55;;;;;;;21.01;62.80;100542.94;5126509;28;20396;-70
2022/06/26 01:50:14;;;;;;;9.48;7.85;;;;;;;21.01;62.94;100542.94;5126354;28;20170;-70
2022/06/26 01:52:39;;;;;;;9.18;7.68;;;;;;;21.00;62.68;100537.75;5126227;28;20511;-70
2022/06/26 01:55:05;;;;;;;8.00;7.20;;;;;;;20.95;62.80;100530.06;5126474;28;20093;-70
2022/06/26 01:57:30;;;;;;;8.25;7.28;;;;;;;20.99;62.65;100539.53;5126233;28;20387;-70
2022/06/26 01:59:56;;;;;;;9.15;8.05;;;;;;;20.97;62.98;100541.41;5126252;28;20069;-70
2022/06/26 02:02:21;;;;;;;8.50;7.68;;;;;;;20.94;62.85;100541.56;5126326;28;20015;-71
2022/06/26 02:04:46;;;;;;;8.15;7.35;;;;;;;20.93;63.11;100545.13;5126116;28;20031;-70
2022/06/26 02:07:11;;;;;;;8.15;7.38;;;;;;;20.90;63.03;100539.97;5126362;28;20035;-70
2022/06/26 02:15:06;;;;;;;8.77;7.80;;;;;;;20.86;63.94;100535.78;5126288;28;20088;-70
2022/06/26 02:17:32;;;;;;;8.95;7.90;;;;;;;20.82;63.99;100535.06;5125936;28;20016;-69
2022/06/26 02:19:57;;;;;;;8.55;7.70;;;;;;;20.83;63.90;100546.47;5125907;28;20024;-69
2022/06/26 02:22:22;;;;;;;7.68;6.88;;;;;;;20.77;64.17;100545.84;5126005;28;20016;-70
2022/06/26 02:24:48;;;;;;;9.30;8.07;;;;;;;20.76;64.23;100544.16;5125941;28;20439;-70
2022/06/26 02:27:13;;;;;;;9.30;7.07;;;;;;;20.66;64.80;100551.66;5125890;28;20083;-70
2022/06/26 02:29:38;;;;;;;8.70;7.80;;;;;;;20.65;64.98;100562.28;5125926;28;20067;-70
2022/06/26 02:32:04;;;;;;;8.13;7.30;;;;;;;20.60;65.18;100554.59;5125711;28;20023;-70
2022/06/26 02:34:30;;;;;;;8.52;7.25;;;;;;;20.53;65.22;100548.75;5125424;28;20032;-70
2022/06/26 02:36:55;;;;;;;9.00;8.05;;;;;;;20.47;66.25;100558.72;5125841;28;20059;-71
2022/06/26 02:39:20;;;;;;;8.13;7.32;;;;;;;20.40;66.69;100563.47;5125725;28;20030;-70
2022/06/26 02:41:46;;;;;;;7.25;6.13;;;;;;;20.30;66.97;100574.41;5125844;28;20024;-70
2022/06/26 02:44:11;;;;;;;7.47;6.78;;;;;;;20.19;67.82;100563.56;5125294;28;20034;-70
2022/06/26 02:46:36;;;;;;;7.53;6.63;;;;;;;20.11;68.34;100557.78;5125566;28;20039;-70
2022/06/26 02:49:02;;;;;;;7.13;6.35;;;;;;;19.99;68.71;100552.09;5125292;28;20053;-70
2022/06/26 02:51:27;;;;;;;9.30;7.18;;;;;;;19.90;69.14;100557.81;5125433;28;20079;-70
2022/06/26 02:53:52;;;;;;;8.88;7.97;;;;;;;19.91;69.21;100559.50;5125097;28;20049;-70
2022/06/26 02:56:18;;;;;;;7.13;6.20;;;;;;;19.85;69.11;100541.34;5125397;28;20027;-70
2022/06/26 02:58:43;;;;;;;7.60;6.90;;;;;;;19.85;69.37;100543.97;5125277;28;20106;-70
2022/06/26 03:01:08;;;;;;;9.13;7.45;;;;;;;19.84;69.36;100539.63;5125360;28;20015;-70
2022/06/26 03:03:34;;;;;;;9.95;7.22;;;;;;;19.82;69.21;100544.97;5124847;28;20023;-70
2022/06/26 03:05:59;;;;;;;7.80;7.00;;;;;;;19.83;69.17;100538.78;5125345;28;20052;-69
2022/06/26 03:08:24;;;;;;;7.90;7.10;;;;;;;19.82;69.32;100532.66;5125144;28;20030;-69
2022/06/26 03:10:50;;;;;;;7.40;6.70;;;;;;;19.79;69.06;100530.16;5125197;28;20050;-70
2022/06/26 03:13:15;;;;;;;9.02;7.45;;;;;;;19.89;69.14;100529.75;5124752;28;20026;-69
2022/06/26 03:15:41;;;;;;;9.73;6.88;;;;;;;19.90;69.20;100534.94;5124971;28;20077;-70
2022/06/26 03:18:06;;;;;;;9.60;7.75;;;;;;;19.92;69.11;100532.25;5124980;28;20038;-69
2022/06/26 03:20:32;;;;;;;8.20;6.97;;;;;;;19.93;68.83;100532.19;5124734;28;20383;-69
2022/06/26 03:22:57;;;;;;;7.90;7.07;;;;;;;19.93;68.55;100531.31;5140826;27;20026;-69
2022/06/26 03:25:23;;;;;;;8.48;7.68;;;;;;;19.94;68.90;100541.78;5124838;28;20051;-69
2022/06/26 03:27:50;;;;;;;8.27;7.30;;;;;;;19.94;68.90;100539.16;5124572;28;20024;-68
2022/06/26 03:30:16;;;;;;;9.70;7.05;;;;;;;19.98;68.70;100563.59;5124963;28;20058;-68
2022/06/26 03:32:41;;;;;;;9.27;7.03;;;;;;;19.96;68.88;100561.91;5124521;28;20465;-71
2022/06/26 03:35:08;;;;;;;8.35;7.07;;;;;;;19.93;68.97;100552.38;5124571;28;20042;-69
2022/06/26 03:37:34;;;;;;;10.35;6.90;;;;;;;19.91;69.13;100549.81;5124673;28;20102;-69
2022/06/26 03:39:59;;;;;;;8.45;7.32;;;;;;;19.94;68.93;100548.81;5124835;28;20023;-68
2022/06/26 03:42:25;;;;;;;8.63;7.25;;;;;;;19.94;69.30;100554.94;5124586;28;20027;-69
2022/06/26 03:44:51;;;;;;;8.43;7.63;;;;;;;19.97;69.22;100556.59;5124468;28;20027;-69
2022/06/26 03:47:16;;;;;;;9.95;7.13;;;;;;;20.02;69.30;100553.72;5124428;28;20027;-71
2022/06/26 03:49:42;;;;;;;8.02;6.57;;;;;;;20.06;69.30;100552.72;5124093;28;20015;-70
2022/06/26 03:52:07;;;;;;;8.15;6.82;;;;;;;20.13;69.15;100556.75;5124179;28;20096;-70
2022/06/26 03:54:34;;;;;;;11.20;6.57;;;;;;;20.19;68.94;100563.56;5124075;28;20019;-69
2022/06/26 03:56:59;;;;;;;15.57;7.80;;;;;;;20.23;68.92;100551.06;5124299;28;20079;-69
2022/06/26 03:59:24;;;;;;;7.05;6.35;;;;;;;20.27;68.59;100558.75;5124349;28;20051;-69
2022/06/26 04:01:50;;;;;;;8.20;7.40;;;;;;;20.29;68.78;100548.13;5124237;28;20027;-70
2022/06/26 04:04:15;;;;;;;8.48;7.35;;;;;;;20.20;68.96;100533.63;5124107;28;20099;-69
2022/06/26 04:06:40;;;;;;;8.27;6.97;;;;;;;20.28;68.75;100549.94;5124278;28;20027;-69
2022/06/26 04:09:06;;;;;;;9.20;7.57;;;;;;;20.25;68.92;100552.72;5124206;28;20459;-71
2022/06/26 04:11:31;;;;;;;8.52;7.43;;;;;;;20.26;68.87;100556.19;5124386;28;20312;-69
2022/06/26 04:13:57;;;;;;;8.18;7.32;;;;;;;20.25;68.76;100567.66;5124299;28;20118;-70
2022/06/26 04:16:22;;;;;;;10.38;6.82;;;;;;;20.21;69.03;100572.22;5124185;28;20024;-69
2022/06/26 04:18:47;;;;;;;7.85;7.10;;;;;;;20.18;68.76;100569.72;5123803;28;20108;-69
2022/06/26 04:21:13;;;;;;;9.68;7.03;;;;;;;20.13;68.77;100561.16;5124267;28;20042;-70
2022/06/26 04:23:38;;;;;;;8.00;7.30;;;;;;;20.15;68.35;100560.19;5124144;28;20065;-69
2022/06/26 04:26:05;;;;;;;9.35;7.07;;;;;;;20.07;68.83;100564.97;5124264;28;20027;-69
2022/06/26 04:28:31;;;;;;;10.27;7.25;;;;;;;20.04;68.80;100555.44;5123887;28;20645;-70
2022/06/26 04:30:56;;;;;;;8.77;7.35;;;;;;;20.03;69.05;100555.50;5124217;28;20028;-70
2022/06/26 04:33:21;;;;;;;8.60;6.72;;;;;;;20.04;68.27;100552.78;5123702;28;20023;-69
2022/06/26 04:35:47;;;;;;;7.28;6.53;;;;;;;20.03;68.45;100558.97;5123739;28;20039;-69
2022/06/26 04:38:12;;;;;;;7.68;6.95;;;;;;;20.02;68.61;100569.53;5123772;28;20084;-69
2022/06/26 04:40:37;;;;;;;7.57;6.78;;;;;;;19.99;68.21;100583.72;5123894;28;20046;-69
2022/06/26 04:43:03;;;;;;;7.50;6.80;;;;;;;19.98;68.25;100584.66;5123764;28;20019;-69
2022/06/26 04:45:28;;;;;;;7.72;6.95;;;;;;;19.93;68.63;100578.72;5123890;28;20064;-69
2022/06/26 04:47:53;;;;;;;10.30;7.47;;;;;;;19.80;69.19;100558.22;5123657;28;20023;-69
2022/06/26 04:50:19;;;;;;;8.25;7.45;;;;;;;19.79;69.50;100563.56;5123509;28;20042;-69
2022/06/26 04:52:46;;;;;;;10.18;7.85;;;;;;;19.81;69.20;100562.56;5123545;28;20040;-69
2022/06/26 04:55:11;;;;;;;7.40;6.70;;;;;;;19.80;68.96;100547.69;5123812;28;20023;-69
2022/06/26 04:57:37;;;;;;;8.00;7.07;;;;;;;19.78;69.08;100541.63;5123884;28;20027;-68
2022/06/26 05:00:08;;;;;;;8.40;7.60;;;;;;;19.81;69.12;100548.50;5123808;28;20555;-68
2022/06/26 05:02:35;;;;;;;7.63;6.93;;;;;;;19.80;69.03;100555.59;5123919;28;20008;-70
2022/06/26 05:05:01;;;;;;;7.53;6.78;;;;;;;19.81;69.00;100552.00;5123468;28;20031;-69
2022/06/26 05:07:27;;;;;;;8.68;6.82;;;;;;;19.86;68.56;100561.47;5126094;28;20030;-70
2022/06/26 05:09:52;;;;;;;7.85;7.15;;;;;;;19.84;68.60;100553.66;5127579;28;20493;-70
2022/06/26 05:12:17;;;;;;;7.85;7.05;;;;;;;19.89;68.66;100564.84;5127402;28;20058;-70
2022/06/26 05:14:43;;;;;;;7.88;7.18;;;;;;;19.87;68.62;100556.13;5127582;28;20093;-69
2022/06/26 05:17:09;;;;;;;7.88;7.07;;;;;;;19.86;68.55;100559.72;5127409;28;20046;-70
2022/06/26 05:19:35;;;;;;;7.40;6.70;;;;;;;19.88;68.40;100571.03;5127192;28;20383;-69
2022/06/26 05:22:02;;;;;;;8.20;7.40;;;;;;;19.84;68.52;100576.53;5127345;28;20490;-69
2022/06/26 05:24:29;;;;;;;8.20;7.50;;;;;;;19.77;69.08;100579.44;5127292;28;20035;-71
2022/06/26 05:26:56;;;;;;;9.07;6.63;;;;;;;19.75;69.48;100583.03;5127323;28;20122;-70
2022/06/26 05:29:22;;;;;;;7.97;7.15;;;;;;;19.76;69.09;100580.34;5127172;28;20107;-70
2022/06/26 05:31:47;;;;;;;8.38;7.47;;;;;;;19.75;69.25;100581.25;5127095;28;20027;-70
2022/06/26 05:34:13;;;;;;;7.80;7.10;;;;;;;19.66;69.84;100579.03;5126572;28;20452;-70
2022/06/26 05:36:38;;;;;;;9.10;7.20;;;;;;;19.64;69.72;100586.16;5127032;28;20023;-70
2022/06/26 05:39:03;;;;;;;7.63;6.88;;;;;;;19.63;69.88;100595.81;5126736;28;20019;-71
2022/06/26 05:41:29;;;;;;;8.00;7.10;;;;;;;19.48;70.54;100592.09;5108671;28;20032;-71
2022/06/26 05:43:54;;;;;;;9.35;8.40;;;;;;;19.34;70.94;100589.19;5126861;28;20092;-69
2022/06/26 05:46:20;;;;;;;10.45;8.65;;;;;;;19.12;72.16;100593.56;5126953;28;20034;-68
2022/06/26 05:48:45;;;;;;;10.68;9.15;;;;;;;18.98;73.10;100588.84;5126407;28;20024;-69
2022/06/26 05:51:10;;;;;;;9.18;8.27;;;;;;;18.90;73.43;100590.91;5126576;28;20069;-67
2022/06/26 05:53:37;;;;;;;9.55;8.23;;;;;;;18.89;73.71;100597.13;5126739;28;20095;-68
2022/06/26 05:56:04;;;;;;;10.05;8.82;;;;;;;18.92;73.87;100583.84;5126707;28;20042;-68
2022/06/26 05:58:29;;;;;;;9.38;8.38;;;;;;;18.95;73.94;100568.78;5126731;28;20027;-67
2022/06/26 06:00:54;;;;;;;9.45;8.10;;;;;;;18.94;73.78;100566.22;5126596;28;20080;-67
2022/06/26 06:03:20;;;;;;;8.35;7.43;;;;;;;19.01;73.30;100578.19;5126221;28;20027;-67
2022/06/26 06:05:45;;;;;;;10.70;8.82;;;;;;;19.05;73.76;100574.53;5126277;28;20026;-68
2022/06/26 06:08:11;;;;;;;8.70;7.90;;;;;;;19.05;73.74;100561.38;5126212;28;20023;-67
2022/06/26 06:10:37;;;;;;;9.15;8.35;;;;;;;19.09;73.46;100562.13;5126574;28;20316;-68
2022/06/26 06:13:02;;;;;;;10.68;8.35;;;;;;;19.13;73.40;100557.59;5126280;28;20045;-69
2022/06/26 06:15:28;;;;;;;9.00;8.10;;;;;;;19.19;73.55;100560.81;5108046;28;20028;-68
2022/06/26 06:17:53;;;;;;;9.23;8.43;;;;;;;19.22;73.43;100565.09;5125575;28;20034;-70
2022/06/26 06:20:25;;;;;;;9.45;8.45;;;;;;;19.22;73.01;100565.09;5125969;28;20023;-70
2022/06/26 06:23:00;;;;;;;9.38;8.38;;;;;;;19.20;73.11;100552.00;5126233;28;20023;-70
2022/06/26 06:25:26;;;;;;;10.25;7.80;;;;;;;19.16;73.41;100536.41;5126178;28;20088;-70
2022/06/26 06:27:52;;;;;;;9.48;7.80;;;;;;;19.19;73.52;100546.81;5125968;28;20028;-70
2022/06/26 06:30:17;;;;;;;9.73;8.15;;;;;;;19.29;73.20;100542.88;5126068;28;20028;-70
2022/06/26 06:32:45;;;;;;;8.57;7.78;;;;;;;19.34;73.26;100531.28;5125941;28;20027;-69
2022/06/26 06:35:13;;;;;;;9.52;7.38;;;;;;;19.38;73.07;100532.84;5125549;28;20442;-69
2022/06/26 06:37:39;;;;;;;9.45;8.60;;;;;;;19.42;73.09;100531.81;5125640;28;20023;-68
2022/06/26 06:40:05;;;;;;;8.68;7.82;;;;;;;19.46;72.93;100545.69;5125760;28;20420;-68
2022/06/26 06:42:31;;;;;;;8.55;7.75;;;;;;;19.47;72.71;100552.66;5125721;28;20019;-68
2022/06/26 06:44:56;;;;;;;10.35;8.02;;;;;;;19.51;72.32;100568.25;5125676;28;20087;-68
2022/06/26 06:47:22;;;;;;;8.70;7.90;;;;;;;19.51;72.50;100570.88;5125395;28;20041;-69
2022/06/26 06:49:47;;;;;;;8.20;7.30;;;;;;;19.50;72.04;100563.06;5125371;28;20053;-70
2022/06/26 06:52:13;;;;;;;11.23;8.25;;;;;;;19.56;71.96;100573.31;5125231;28;20043;-68
2022/06/26 06:54:38;;;;;;;6.88;6.20;;;;;;;19.70;70.15;100580.59;5125157;28;20031;-69
2022/06/26 06:57:04;;;;;;;8.38;6.50;;;;;;;19.87;69.10;100576.38;5125477;28;20023;-69
2022/06/26 06:59:29;;;;;;;8.05;5.93;;;;;;;20.12;67.23;100580.56;5125245;28;20449;-69
2022/06/26 07:01:55;;;;;;;7.22;6.53;;;;;;;20.32;66.50;100566.44;5125034;28;20019;-68
2022/06/26 07:04:20;;;;;;;8.23;6.55;;;;;;;20.47;66.23;100553.47;5125152;28;20127;-70
2022/06/26 07:06:46;;;;;;;8.40;7.10;;;;;;;20.51;66.42;100544.50;5106892;28;20514;-69
2022/06/26 07:09:12;;;;;;;7.82;7.13;;;;;;;20.53;66.63;100537.34;5125135;28;20028;-69
2022/06/26 07:11:37;;;;;;;8.35;7.40;;;;;;;20.44;67.05;100528.09;5125174;28;20083;-69
2022/06/26 07:14:02;;;;;;;8.63;7.38;;;;;;;20.43;67.61;100529.03;5124945;28;20016;-69
2022/06/26 07:16:28;;;;;;;7.70;7.00;;;;;;;20.43;67.27;100529.88;5106797;28;20028;-69
2022/06/26 07:18:53;;;;;;;8.18;7.07;;;;;;;20.40;67.63;100526.56;5124649;28;20431;-69
2022/06/26 07:21:19;;;;;;;8.43;7.65;;;;;;;20.35;68.19;100521.47;5125035;28;20023;-70
2022/06/26 07:23:44;;;;;;;8.77;7.95;;;;;;;20.31;68.39;100523.44;5124910;28;20019;-70
2022/06/26 07:26:10;;;;;;;9.52;8.40;;;;;;;20.25;68.44;100528.13;5124766;28;20522;-68
2022/06/26 07:28:35;;;;;;;10.82;9.40;;;;;;;20.15;69.24;100528.56;5124663;28;20016;-69
2022/06/26 07:31:01;;;;;;;10.20;9.23;;;;;;;20.02;69.98;100528.28;5124104;28;20039;-69
2022/06/26 07:36:10;;;;;;;10.15;9.15;;;;;;;19.80;71.25;100544.19;5124641;28;20080;-68
2022/06/26 07:38:35;;;;;;;11.75;8.95;;;;;;;19.76;71.58;100547.91;5124604;28;20020;-69
2022/06/26 07:41:01;;;;;;;9.95;8.80;;;;;;;19.81;71.53;100553.78;5124635;28;20023;-68
2022/06/26 07:43:26;;;;;;;9.55;8.63;;;;;;;19.87;71.45;100565.84;5124565;28;20153;-69
2022/06/26 07:45:52;;;;;;;9.20;8.15;;;;;;;19.96;71.47;100573.31;5124619;28;20350;-68
2022/06/26 07:48:17;;;;;;;9.48;8.68;;;;;;;20.09;71.65;100580.69;5124219;28;20049;-69
2022/06/26 07:50:43;;;;;;;9.30;8.40;;;;;;;20.19;71.96;100592.53;5124104;28;20027;-68
2022/06/26 07:53:09;;;;;;;12.77;8.73;;;;;;;20.23;72.07;100599.38;5123989;28;20479;-67
2022/06/26 07:55:34;;;;;;;11.43;9.60;;;;;;;20.31;72.11;100597.25;5124541;28;20035;-68
2022/06/26 07:58:00;;;;;;;10.07;8.85;;;;;;;20.44;72.17;100596.66;5124280;28;20073;-68
2022/06/26 08:00:25;;;;;;;10.55;9.45;;;;;;;20.54;71.97;100582.09;5124350;28;20072;-68
2022/06/26 08:02:51;;;;;;;9.52;8.57;;;;;;;20.66;71.78;100587.72;5124183;28;20124;-68
2022/06/26 08:05:16;;;;;;;10.38;9.38;;;;;;;20.73;71.63;100590.91;5123884;28;20081;-68
2022/06/26 08:07:41;;;;;;;9.80;8.88;;;;;;;20.79;71.60;100596.75;5124285;28;20059;-69
2022/06/26 08:10:07;;;;;;;10.75;9.10;;;;;;;20.90;71.18;100587.44;5124294;28;20012;-69
2022/06/26 08:12:33;;;;;;;13.35;10.10;;;;;;;20.87;70.68;100583.19;5124115;28;20069;-69
2022/06/26 08:14:58;;;;;;;12.25;9.80;;;;;;;20.84;70.51;100585.13;5124150;28;20019;-69
2022/06/26 08:17:24;;;;;;;11.30;9.95;;;;;;;20.77;70.61;100593.34;5123982;28;20020;-69
2022/06/26 08:19:49;;;;;;;10.75;9.63;;;;;;;20.68;70.45;100604.34;5123775;28;20073;-69
2022/06/26 08:22:15;;;;;;;10.80;9.80;;;;;;;20.62;70.50;100617.81;5124153;28;20023;-69
2022/06/26 08:24:41;;;;;;;9.98;9.05;;;;;;;20.63;70.87;100632.72;5123931;28;20575;-69
2022/06/26 08:27:08;;;;;;;10.30;9.30;;;;;;;20.66;71.58;100637.84;5124156;28;20016;-69
2022/06/26 08:29:33;;;;;;;10.82;9.80;;;;;;;20.69;71.18;100627.13;5124031;28;20031;-69
2022/06/26 08:31:58;;;;;;;13.35;9.82;;;;;;;20.66;71.23;100608.81;5124044;28;20430;-69
2022/06/26 08:34:24;;;;;;;12.23;9.40;;;;;;;20.64;70.50;100619.44;5123741;28;20028;-68
2022/06/26 08:36:49;;;;;;;10.35;9.30;;;;;;;20.60;70.62;100617.03;5123943;28;20023;-67
2022/06/26 08:39:15;;;;;;;10.90;9.85;;;;;;;20.55;70.86;100615.47;5123792;28;20030;-67
2022/06/26 08:41:43;;;;;;;10.98;9.80;;;;;;;20.53;70.83;100601.50;5125415;28;20088;-67
2022/06/26 08:44:09;;;;;;;11.00;9.80;;;;;;;20.53;71.08;100612.03;5127996;28;20016;-69
2022/06/26 08:46:38;;;;;;;10.07;9.07;;;;;;;20.60;71.10;100593.28;5127823;28;20034;-68
2022/06/26 08:49:09;;;;;;;9.73;8.73;;;;;;;20.70;70.83;100593.72;5127507;28;20058;-69
2022/06/26 08:51:38;;;;;;;10.57;9.48;;;;;;;20.82;70.92;100593.09;5127739;28;20047;-68
2022/06/26 08:54:05;;;;;;;9.60;8.68;;;;;;;20.91;70.51;100599.72;5127552;28;20034;-69
2022/06/26 08:56:31;;;;;;;10.27;9.27;;;;;;;20.92;70.52;100590.91;5127703;28;20015;-69
2022/06/26 08:58:57;;;;;;;10.45;9.35;;;;;;;20.97;70.82;100594.19;5127861;28;20049;-69
2022/06/26 09:01:23;;;;;;;14.57;9.95;;;;;;;21.25;70.95;100608.63;5127576;28;20024;-69
2022/06/26 09:03:48;;;;;;;9.60;8.65;;;;;;;21.40;70.36;100595.59;5127349;28;20094;-69
2022/06/26 09:06:13;;;;;;;9.57;8.68;;;;;;;21.46;69.97;100592.63;5127359;28;20415;-69
2022/06/26 09:08:49;;;;;;;10.10;9.10;;;;;;;21.48;69.63;100582.84;5127509;28;20076;-68
2022/06/26 09:11:15;;;;;;;10.40;9.30;;;;;;;21.51;69.91;100576.53;5127623;28;20016;-69
2022/06/26 09:13:43;;;;;;;11.23;10.13;;;;;;;21.57;69.79;100581.50;5127309;28;20027;-69
2022/06/26 09:16:10;;;;;;;10.57;9.48;;;;;;;21.63;69.82;100567.97;5127366;28;20023;-68
2022/06/26 09:18:37;;;;;;;10.40;9.38;;;;;;;21.73;69.59;100578.91;5127442;28;20093;-69
2022/06/26 09:21:04;;;;;;;10.23;9.23;;;;;;;21.82;69.48;100574.94;5127065;28;20024;-69
2022/06/26 09:23:32;;;;;;;10.70;9.80;;;;;;;21.83;68.93;100565.25;5127189;28;20370;-68
2022/06/26 09:25:59;;;;;;;10.93;9.98;;;;;;;21.83;69.09;100563.47;5127291;28;20102;-68
2022/06/26 09:28:25;;;;;;;11.60;10.60;;;;;;;21.83;68.89;100560.81;5126871;28;20028;-69
2022/06/26 09:30:53;;;;;;;11.85;10.65;;;;;;;21.81;68.88;100557.41;5127107;28;20028;-71
2022/06/26 09:33:23;;;;;;;11.57;10.57;;;;;;;21.86;69.47;100560.66;5127036;28;20024;-69
2022/06/26 09:35:49;;;;;;;11.35;10.25;;;;;;;21.91;69.13;100557.75;5126861;28;20106;-68
2022/06/26 09:38:20;;;;;;;11.70;10.65;;;;;;;21.95;69.13;100555.81;5127065;28;20035;-67
2022/06/26 09:40:50;;;;;;;11.10;10.02;;;;;;;22.00;69.28;100557.25;5126913;28;20407;-68
2022/06/26 09:43:31;;;;;;;11.57;10.38;;;;;;;22.19;68.84;100556.25;5126869;28;20034;-69
2022/06/26 09:45:59;;;;;;;12.18;10.10;;;;;;;22.50;68.11;100558.97;5126935;28;20031;-69
2022/06/26 09:48:25;;;;;;;10.48;9.45;;;;;;;22.71;68.01;100559.56;5126655;28;20084;-69
2022/06/26 09:50:52;;;;;;;11.13;10.02;;;;;;;22.92;66.82;100551.34;5126399;28;20027;-68
2022/06/26 09:53:18;;;;;;;10.77;9.35;;;;;;;23.07;67.03;100546.09;5125831;28;20080;-68
2022/06/26 09:55:49;;;;;;;11.00;9.80;;;;;;;23.14;66.58;100547.41;5126922;28;20351;-69
2022/06/26 09:58:15;;;;;;;11.52;10.45;;;;;;;23.15;66.01;100543.81;5126517;28;20023;-68
2022/06/26 10:00:41;;;;;;;11.95;10.95;;;;;;;23.16;65.97;100542.88;5126230;28;20049;-69
2022/06/26 10:08:42;;;;;;;10.73;9.63;;;;;;;23.45;66.16;100550.06;5126501;28;20038;-69
2022/06/26 10:11:08;;;;;;;12.18;10.95;;;;;;;23.49;65.83;100548.91;5126415;28;20057;-69
2022/06/26 10:13:36;;;;;;;13.45;10.20;;;;;;;23.50;65.95;100551.47;5126162;28;20024;-68
2022/06/26 10:16:45;;;;;;;11.02;9.98;;;;;;;23.59;65.87;100551.84;5126357;28;20019;-69
2022/06/26 10:19:21;;;;;;;11.63;10.43;;;;;;;23.58;65.46;100537.75;5126004;28;20036;-68
2022/06/26 10:21:47;;;;;;;11.75;10.73;;;;;;;23.57;65.60;100537.84;5126196;28;20046;-69
2022/06/26 10:24:13;;;;;;;11.45;9.90;;;;;;;23.52;65.91;100548.72;5126120;28;20020;-69
2022/06/26 10:26:38;;;;;;;12.30;10.65;;;;;;;23.52;65.88;100533.69;5107784;28;20016;-69
2022/06/26 10:29:05;;;;;;;11.95;10.57;;;;;;;23.51;65.56;100539.91;5125729;28;20059;-69
2022/06/26 10:31:31;;;;;;;12.75;10.90;;;;;;;23.45;66.26;100529.69;5125998;28;20024;-69
2022/06/26 10:34:08;;;;;;;15.38;11.77;;;;;;;23.33;66.51;100535.72;5125455;28;20076;-68
2022/06/26 10:36:34;;;;;;;12.18;11.07;;;;;;;23.21;67.34;100534.66;5126164;28;20023;-69
2022/06/26 10:39:05;;;;;;;13.10;12.00;;;;;;;23.17;67.62;100534.00;5125710;28;20079;-68
2022/06/26 10:44:41;;;;;;;12.43;11.13;;;;;;;23.31;68.02;100527.84;5125868;28;20034;-70
2022/06/26 10:47:14;;;;;;;11.88;10.88;;;;;;;23.38;68.03;100533.63;5125692;28;20031;-68
2022/06/26 10:49:51;;;;;;;11.93;10.85;;;;;;;23.48;68.39;100529.50;5125447;28;20107;-68
2022/06/26 10:52:27;;;;;;;14.70;11.95;;;;;;;23.72;67.91;100520.97;5125164;28;20048;-69
2022/06/26 10:54:54;;;;;;;11.70;10.70;;;;;;;23.85;67.58;100525.53;5125404;28;20027;-69
2022/06/26 10:57:33;;;;;;;11.52;10.63;;;;;;;24.05;67.39;100526.06;5125191;28;20497;-69
2022/06/26 10:59:59;;;;;;;11.90;10.70;;;;;;;24.36;67.17;100524.13;5125253;28;20055;-69
2022/06/26 11:02:25;;;;;;;12.57;11.38;;;;;;;24.67;66.79;100523.88;5125187;28;20046;-69
2022/06/26 11:04:50;;;;;;;12.13;11.00;;;;;;;25.04;65.62;100529.41;5125000;28;20019;-69
2022/06/26 11:07:17;;;;;;;11.02;9.93;;;;;;;25.25;64.75;100526.25;5125424;28;20336;-69
2022/06/26 11:09:44;;;;;;;12.45;10.40;;;;;;;25.44;64.09;100530.28;5125106;28;20049;-69
2022/06/26 11:12:10;;;;;;;10.45;9.55;;;;;;;25.72;62.95;100526.56;5124969;28;20028;-69
2022/06/26 11:14:35;;;;;;;10.95;9.93;;;;;;;26.12;62.79;100519.31;5125116;28;20030;-69
2022/06/26 11:17:01;;;;;;;9.68;8.88;;;;;;;26.60;61.02;100517.66;5124953;28;20028;-69
2022/06/26 11:19:31;;;;;;;10.10;8.95;;;;;;;26.96;60.76;100507.84;5124570;28;20093;-69
2022/06/26 11:22:08;;;;;;;10.90;9.83;;;;;;;27.32;60.02;100509.59;5125053;28;20015;-70
2022/06/26 11:24:33;;;;;;;9.38;8.20;;;;;;;27.62;58.50;100505.47;5124815;28;20256;-69
2022/06/26 11:26:59;;;;;;;10.40;9.32;;;;;;;27.88;57.60;100505.25;5124917;28;20030;-69
2022/06/26 11:29:24;;;;;;;10.50;9.50;;;;;;;28.01;56.52;100504.25;5124668;28;20023;-69
2022/06/26 11:31:50;;;;;;;10.52;9.45;;;;;;;28.08;55.53;100508.13;5124837;28;20019;-69
2022/06/26 11:34:16;;;;;;;10.75;9.70;;;;;;;28.17;55.03;100511.84;5124145;28;20055;-69